Simcoe-Lingwood

*Note: All times are displayed in the local standard time of the station location.
**Rain - Equipment is designed to accurately record liquid precipitation; under conditions when precipitation is not in liquid form, the data displayed may not properly reflect rainfall values.

Date Max Temp
(°C)
Min Temp
(°C)
Avg Temp
(°C)
Rain (mm) Avg RH (%)
Sat, Dec 16, 2017 -1.8 -7.8 -4.8 0.0 77.7
Fri, Dec 15, 2017 -3.9 -20.9 -9.7 0.0 85.7
Thu, Dec 14, 2017 -6.8 -19.1 -12.3 0.0 80.6
Wed, Dec 13, 2017 -7.3 -16.3 -10.7 0.0 82.1
Tue, Dec 12, 2017 -3.1 -10.9 -7.0 0.0 84.1
Mon, Dec 11, 2017 -3.4 -7.7 -4.7 0.0 83.8
Sun, Dec 10, 2017 -2.2 -4.5 -3.5 0.0 79.5
DateTime Avg Temp (°C) Rain (mm) RH (%)
Sun, Dec 17, 2017 17:00 -5.2 0.0 83.0
Sun, Dec 17, 2017 16:00 -5.4 0.0 81.3
Sun, Dec 17, 2017 15:00 -5.7 0.0 80.8
Sun, Dec 17, 2017 14:00 -6.0 0.0 81.5
Sun, Dec 17, 2017 13:00 -6.2 0.0 80.8
Sun, Dec 17, 2017 12:00 -5.9 0.0 80.0
Sun, Dec 17, 2017 11:00 -6.0 0.0 80.8
Sun, Dec 17, 2017 10:00 -6.6 0.0 83.8
Sun, Dec 17, 2017 09:00 -7.6 0.0 86.0
Sun, Dec 17, 2017 08:00 -8.0 0.0 85.5
Sun, Dec 17, 2017 07:00 -7.9 0.0 84.3
Sun, Dec 17, 2017 06:00 -7.7 0.0 79.5
Sun, Dec 17, 2017 05:00 -7.6 0.0 76.8
Sun, Dec 17, 2017 04:00 -7.5 0.0 73.5
Sun, Dec 17, 2017 03:00 -7.3 0.0 74.5
Sun, Dec 17, 2017 02:00 -7.1 0.0 75.8
Sun, Dec 17, 2017 01:00 -6.6 0.0 77.8
Sun, Dec 17, 2017 00:00 -6.4 0.0 76.0
Sat, Dec 16, 2017 23:00 -6.1 0.0 77.0
Sat, Dec 16, 2017 22:00 -5.7 0.0 78.8
Sat, Dec 16, 2017 21:00 -5.5 0.0 77.3
Sat, Dec 16, 2017 20:00 -5.4 0.0 77.8
Sat, Dec 16, 2017 19:00 -5.1 0.0 79.3
Sat, Dec 16, 2017 18:00 -4.7 0.0 76.3
Sat, Dec 16, 2017 17:00 -4.0 0.0 72.3
Sat, Dec 16, 2017 16:00 -3.7 0.0 72.0
Sat, Dec 16, 2017 15:00 -2.4 0.0 70.0
Sat, Dec 16, 2017 14:00 -1.9 0.0 66.8
Sat, Dec 16, 2017 13:00 -2.4 0.0 69.3
Sat, Dec 16, 2017 12:00 -2.9 0.0 74.0
Sat, Dec 16, 2017 11:00 -3.9 0.0 80.8
Sat, Dec 16, 2017 10:00 -4.5 0.0 85.8
Sat, Dec 16, 2017 09:00 -5.2 0.0 89.5
Sat, Dec 16, 2017 08:00 -5.4 0.0 91.3
Sat, Dec 16, 2017 07:00 -5.2 0.0 88.8
Sat, Dec 16, 2017 06:00 -5.0 0.0 82.8
Sat, Dec 16, 2017 05:00 -4.5 0.0 74.0
Sat, Dec 16, 2017 04:00 -5.2 0.0 76.0
Sat, Dec 16, 2017 03:00 -7.0 0.0 80.0
Sat, Dec 16, 2017 02:00 -7.5 0.0 78.3
Sat, Dec 16, 2017 01:00 -6.8 0.0 72.3
Sat, Dec 16, 2017 00:00 -6.3 0.0 68.5
Fri, Dec 15, 2017 23:00 -6.1 0.0 76.5
Fri, Dec 15, 2017 22:00 -5.5 0.0 72.8
Fri, Dec 15, 2017 21:00 -5.1 0.0 77.5
Fri, Dec 15, 2017 20:00 -4.9 0.0 78.3
Fri, Dec 15, 2017 19:00 -4.9 0.0 80.0
Fri, Dec 15, 2017 18:00 -4.9 0.0 82.5


asterix Register now to access more data! asterix